Pagoda, Texas
Current Conditions -  °F | °C
As of 12:15 PM on Wednesday 28 Jan 2015 (Local Time) from KDKR Reporting Station
Clear Clear  
Wind Chill: 79°   Ceiling: Unl
Heat Index: 79°   Visibility: 10mi
Dew Point: 46°   Wind: 10mph
Humidity: 32%   Direction: 140°SE
Pressure: 30.19"   Gusts: NA
Location:  30.9905°N, 95.3368°W
Report Text: KDKR 281815Z AUTO 14009KT 10SM CLR 26/08 A3019 RMK AO2
Loading
Personal Weather Stations






























Interactive Weather Map New forecast layout! Learn more

10-Day Weather Forecast

Advertisements
Track Severe Weather on mobile